Time;durP1;ratioP1;P1;durP2;ratioP2;P2;SDS_P1;SDS_P2;PMS_P1;PMS_P2;Temp;Humidity;BMP_temperature;BMP_pressure;BME280_temperature;BME280_humidity;BME280_pressure;Samples;Min_cycle;Max_cycle;Signal;HPM_P1;HPM_P2
2022/05/03 00:01:58;;;;;;;24.27;16.10;;;12.70;80.20;;;;;;10437785;28;20041;-84
2022/05/03 00:07:11;;;;;;;25.23;16.45;;;12.60;82.40;;;;;;10444980;28;20095;-84
2022/05/03 00:12:19;;;;;;;24.48;15.88;;;12.50;81.00;;;;;;10414473;28;20026;-84
2022/05/03 00:17:22;;;;;;;24.73;15.80;;;12.60;82.20;;;;;;10414588;28;20049;-84
2022/05/03 00:22:23;;;;;;;27.67;17.88;;;12.50;83.50;;;;;;10414338;28;20025;-84
2022/05/03 00:27:26;;;;;;;28.75;18.15;;;12.50;83.80;;;;;;10432188;28;20029;-84
2022/05/03 00:32:28;;;;;;;29.05;18.88;;;12.40;85.20;;;;;;10424379;28;20119;-84
2022/05/03 00:37:28;;;;;;;30.70;17.08;;;12.20;85.20;;;;;;10445757;28;20033;-84
2022/05/03 00:42:49;;;;;;;32.88;20.25;;;12.00;84.40;;;;;;10413779;28;20034;-84
2022/05/03 00:47:51;;;;;;;40.28;21.50;;;11.70;84.20;;;;;;10413405;28;20033;-83
2022/05/03 00:53:02;;;;;;;31.17;19.92;;;11.50;83.90;;;;;;10434391;28;20123;-84
2022/05/03 00:58:17;;;;;;;27.30;16.05;;;11.30;84.00;;;;;;10435245;28;20132;-84
2022/05/03 01:03:26;;;;;;;27.58;16.10;;;11.10;84.30;;;;;;10426614;28;20025;-84
2022/05/03 01:08:41;;;;;;;26.47;15.33;;;10.80;84.50;;;;;;10412268;28;20113;-84
2022/05/03 01:13:53;;;;;;;29.20;17.00;;;10.60;84.50;;;;;;10450660;28;20033;-84
2022/05/03 01:19:16;;;;;;;29.23;16.47;;;10.60;84.30;;;;;;10447541;28;20025;-84
2022/05/03 01:24:56;;;;;;;30.07;17.83;;;10.60;86.70;;;;;;10426817;28;20025;-84
2022/05/03 01:29:59;;;;;;;25.17;15.27;;;10.80;87.10;;;;;;10419408;28;20025;-85
2022/05/03 01:35:01;;;;;;;27.20;15.73;;;10.90;88.30;;;;;;10417644;28;20086;-84
2022/05/03 01:40:05;;;;;;;25.30;15.77;;;11.00;88.90;;;;;;10410840;28;20037;-84
2022/05/03 01:45:10;;;;;;;26.13;15.40;;;11.20;86.60;;;;;;10411109;28;20117;-84
2022/05/03 01:50:40;;;;;;;28.23;17.83;;;11.30;86.70;;;;;;10409389;28;20036;-84
2022/05/03 01:56:15;;;;;;;34.13;20.08;;;11.40;89.10;;;;;;10426906;28;20385;-85
2022/05/03 02:01:40;;;;;;;33.00;19.08;;;11.40;89.40;;;;;;10414188;28;20393;-84
2022/05/03 02:07:07;;;;;;;33.22;20.17;;;11.30;89.90;;;;;;10414194;28;20022;-84
2022/05/03 02:12:14;;;;;;;27.97;18.67;;;11.30;88.30;;;;;;10434439;28;20032;-84
2022/05/03 02:17:24;;;;;;;40.85;24.02;;;11.20;89.40;;;;;;10432949;28;20052;-84
2022/05/03 02:22:30;;;;;;;34.13;21.53;;;11.10;91.00;;;;;;10434302;28;20029;-84
2022/05/03 02:27:34;;;;;;;32.60;19.25;;;10.70;92.80;;;;;;10409268;28;20053;-85
2022/05/03 02:32:56;;;;;;;38.33;23.40;;;10.50;93.20;;;;;;10414206;28;20025;-84
2022/05/03 02:38:01;;;;;;;39.60;24.27;;;10.20;95.50;;;;;;10449223;28;20489;-85
2022/05/03 02:43:02;;;;;;;39.60;24.17;;;10.00;97.70;;;;;;10442982;28;20097;-84
2022/05/03 02:48:17;;;;;;;34.73;22.17;;;9.80;98.50;;;;;;10417005;28;20028;-84
2022/05/03 02:53:39;;;;;;;37.73;23.13;;;9.70;99.00;;;;;;10429362;28;20491;-85
2022/05/03 02:59:04;;;;;;;32.60;19.87;;;9.60;99.20;;;;;;10449162;28;20032;-84
2022/05/03 03:04:10;;;;;;;33.67;20.57;;;9.50;99.20;;;;;;10413577;28;20555;-85
2022/05/03 03:09:20;;;;;;;32.33;18.70;;;9.50;99.50;;;;;;10446409;28;20082;-85
2022/05/03 03:14:35;;;;;;;34.27;20.13;;;9.60;99.90;;;;;;10423154;28;20052;-85
2022/05/03 03:19:47;;;;;;;31.93;20.53;;;9.80;99.90;;;;;;10446503;28;20033;-84
2022/05/03 03:24:50;;;;;;;29.60;20.03;;;9.90;99.90;;;;;;10417908;28;20060;-85
2022/05/03 03:29:56;;;;;;;28.60;19.73;;;10.10;99.90;;;;;;10435478;28;20021;-85
2022/05/03 03:35:01;;;;;;;29.53;18.83;;;10.20;99.90;;;;;;10419868;28;20075;-84
2022/05/03 03:40:03;;;;;;;31.70;19.17;;;10.30;99.90;;;;;;10415934;28;20104;-84
2022/05/03 03:45:07;;;;;;;31.67;19.57;;;10.40;98.40;;;;;;10414900;28;20129;-84
2022/05/03 03:50:09;;;;;;;32.97;21.00;;;10.50;99.90;;;;;;10440026;28;20689;-84
2022/05/03 03:55:12;;;;;;;30.47;20.87;;;10.40;99.90;;;;;;10425564;28;20045;-84
2022/05/03 04:00:14;;;;;;;36.00;21.83;;;10.30;99.90;;;;;;10430472;28;20396;-84
2022/05/03 04:05:23;;;;;;;33.73;20.40;;;10.10;99.60;;;;;;10437271;28;20159;-84
2022/05/03 04:10:23;;;;;;;38.13;21.73;;;10.00;99.90;;;;;;10414798;28;20030;-84
2022/05/03 04:15:26;;;;;;;34.63;23.33;;;9.80;99.90;;;;;;10414525;28;20053;-84
2022/05/03 04:20:26;;;;;;;36.03;22.40;;;9.70;99.90;;;;;;10414611;28;20082;-84
2022/05/03 04:25:27;;;;;;;37.60;23.47;;;9.60;99.90;;;;;;10425452;28;20039;-85
2022/05/03 04:30:28;;;;;;;41.07;26.83;;;9.60;99.90;;;;;;10446918;28;20105;-85
2022/05/03 04:35:28;;;;;;;37.97;24.67;;;9.80;99.90;;;;;;10427515;28;20045;-85
2022/05/03 04:40:29;;;;;;;38.73;25.13;;;9.90;99.90;;;;;;10438561;28;20025;-84
2022/05/03 04:45:30;;;;;;;40.87;25.50;;;10.10;99.90;;;;;;10413005;28;20026;-83
2022/05/03 04:50:30;;;;;;;39.30;25.03;;;10.30;99.90;;;;;;10422315;28;20416;-85
2022/05/03 04:55:31;;;;;;;41.65;25.42;;;10.60;99.90;;;;;;10431836;28;20389;-85
2022/05/03 05:00:32;;;;;;;43.20;26.23;;;11.10;99.90;;;;;;10436653;28;20027;-84
2022/05/03 05:05:32;;;;;;;39.60;24.65;;;11.50;99.90;;;;;;10429981;28;20108;-86
2022/05/03 05:10:33;;;;;;;43.60;27.15;;;11.80;99.90;;;;;;10424850;28;20040;-84
2022/05/03 05:15:34;;;;;;;43.33;26.05;;;11.90;99.90;;;;;;10425622;28;20055;-84
2022/05/03 05:20:35;;;;;;;36.95;24.42;;;11.80;99.50;;;;;;10411984;28;20021;-84
2022/05/03 05:25:35;;;;;;;42.92;27.60;;;11.70;99.90;;;;;;10412222;28;20033;-84
2022/05/03 05:30:36;;;;;;;52.67;33.30;;;11.80;99.90;;;;;;10426906;28;20044;-84
2022/05/03 05:35:37;;;;;;;45.83;29.75;;;12.00;99.90;;;;;;10417368;28;20037;-85
2022/05/03 05:40:37;;;;;;;53.58;33.85;;;12.20;99.90;;;;;;10437354;28;20036;-87
2022/05/03 05:45:38;;;;;;;50.00;33.50;;;12.50;99.90;;;;;;10425395;28;20069;-84
2022/05/03 05:50:39;;;;;;;51.08;33.50;;;12.60;99.90;;;;;;10430528;28;20508;-84
2022/05/03 05:55:42;;;;;;;56.10;35.42;;;12.70;99.90;;;;;;10404742;28;20041;-84
2022/05/03 06:00:43;;;;;;;53.85;34.30;;;12.70;98.00;;;;;;10439100;28;20028;-84
2022/05/03 06:05:44;;;;;;;49.58;34.20;;;12.60;99.90;;;;;;10424202;28;20496;-83
2022/05/03 06:10:45;;;;;;;46.15;31.58;;;12.60;99.10;;;;;;10414561;28;20063;-83
2022/05/03 06:15:46;;;;;;;53.33;35.88;;;12.60;99.90;;;;;;10442183;28;20053;-84
2022/05/03 06:20:46;;;;;;;58.60;37.13;;;12.40;99.90;;;;;;10410684;28;20029;-83
2022/05/03 06:25:47;;;;;;;63.70;41.95;;;12.30;99.90;;;;;;10412862;28;20553;-85
2022/05/03 06:30:48;;;;;;;53.67;35.80;;;12.30;99.90;;;;;;10412700;28;20056;-84
2022/05/03 06:35:49;;;;;;;46.38;31.05;;;12.40;99.90;;;;;;10392088;28;20585;-88
2022/05/03 06:40:49;;;;;;;40.33;28.33;;;12.60;99.90;;;;;;10418501;28;20530;-85
2022/05/03 06:45:52;;;;;;;44.85;29.42;;;13.00;99.90;;;;;;10414215;28;20033;-85
2022/05/03 06:50:53;;;;;;;44.05;29.20;;;13.50;99.90;;;;;;10418771;28;20031;-86
2022/05/03 06:55:53;;;;;;;40.28;28.20;;;13.70;99.90;;;;;;10422729;28;20537;-86
2022/05/03 07:00:54;;;;;;;41.60;27.85;;;13.70;99.90;;;;;;10441976;28;20536;-85
2022/05/03 07:05:55;;;;;;;33.97;22.95;;;14.00;99.90;;;;;;10433667;28;20021;-85
2022/05/03 07:10:56;;;;;;;33.33;21.63;;;14.40;99.90;;;;;;10426886;28;20026;-86
2022/05/03 07:15:57;;;;;;;32.58;22.35;;;15.30;97.40;;;;;;10422595;28;20057;-86
2022/05/03 07:26:18;;;;;;;29.55;18.85;;;15.60;85.10;;;;;;10422737;28;20049;-84
2022/05/03 07:31:19;;;;;;;26.85;16.60;;;16.10;85.60;;;;;;10426389;28;20034;-85
2022/05/03 07:36:21;;;;;;;23.92;16.55;;;16.40;78.80;;;;;;10422358;28;20037;-83
2022/05/03 07:41:24;;;;;;;25.42;15.52;;;16.50;75.00;;;;;;10423288;28;20029;-84
2022/05/03 07:46:25;;;;;;;23.60;14.98;;;16.90;73.00;;;;;;10431752;28;20107;-84
2022/05/03 07:51:25;;;;;;;22.75;14.18;;;17.40;72.20;;;;;;10444012;28;20116;-84
2022/05/03 07:56:26;;;;;;;23.45;14.32;;;17.50;72.70;;;;;;10416407;28;20392;-84
2022/05/03 08:01:27;;;;;;;21.08;13.50;;;17.50;70.30;;;;;;10448536;28;20039;-84
2022/05/03 08:06:28;;;;;;;19.95;11.55;;;17.80;68.50;;;;;;10449584;28;20029;-84
2022/05/03 08:11:28;;;;;;;18.13;10.48;;;18.10;67.20;;;;;;10421850;28;20087;-84
2022/05/03 08:16:31;;;;;;;16.98;10.93;;;18.20;68.20;;;;;;10425765;28;20141;-84
2022/05/03 08:21:32;;;;;;;18.67;11.20;;;18.80;67.60;;;;;;10427989;28;20060;-85
2022/05/03 08:26:33;;;;;;;18.67;12.10;;;19.00;65.60;;;;;;10413687;28;20123;-84
2022/05/03 08:31:34;;;;;;;22.80;13.80;;;19.00;65.20;;;;;;10436162;28;20037;-84
2022/05/03 08:36:35;;;;;;;16.92;10.57;;;19.40;65.60;;;;;;10438075;28;20045;-85
2022/05/03 08:47:47;;;;;;;14.48;8.88;;;20.00;65.60;;;;;;10415076;28;20049;-84
2022/05/03 08:53:19;;;;;;;18.60;9.10;;;20.20;63.60;;;;;;10375729;28;20048;-84
2022/05/03 08:59:04;;;;;;;14.15;8.57;;;20.30;61.70;;;;;;10358901;28;20034;-85
2022/05/03 09:04:17;;;;;;;13.48;8.43;;;20.00;60.00;;;;;;10340824;28;20038;-85
2022/05/03 09:09:24;;;;;;;14.88;10.25;;;19.90;61.40;;;;;;10308989;28;20129;-84
2022/05/03 09:14:39;;;;;;;15.52;10.25;;;19.70;63.90;;;;;;10355838;28;20620;-84
2022/05/03 09:19:39;;;;;;;18.57;11.40;;;19.40;66.50;;;;;;10345002;28;20038;-84
2022/05/03 09:25:04;;;;;;;15.35;10.70;;;19.40;67.70;;;;;;10334470;28;20034;-84
2022/05/03 09:30:07;;;;;;;13.55;9.63;;;19.60;66.00;;;;;;10339275;28;20065;-84
2022/05/03 09:35:34;;;;;;;10.88;8.02;;;19.70;65.30;;;;;;10328700;28;20510;-86
2022/05/03 09:40:57;;;;;;;12.07;7.72;;;19.90;64.60;;;;;;10331233;28;20516;-87
2022/05/03 09:46:26;;;;;;;10.82;6.88;;;20.30;63.50;;;;;;10353293;28;20042;-86
2022/05/03 09:51:38;;;;;;;10.10;6.95;;;21.20;63.60;;;;;;10352177;28;20042;-86
2022/05/03 09:56:42;;;;;;;11.68;7.15;;;21.70;57.60;;;;;;10340196;28;20049;-86
2022/05/03 10:01:43;;;;;;;8.40;6.28;;;21.10;57.50;;;;;;10398256;28;20065;-86
2022/05/03 10:06:43;;;;;;;9.50;5.95;;;21.10;58.80;;;;;;10428074;28;20095;-89
2022/05/03 10:11:46;;;;;;;8.57;5.57;;;21.30;59.20;;;;;;10438712;28;20067;-86
2022/05/03 10:22:29;;;;;;;8.90;6.15;;;21.80;58.60;;;;;;10433552;28;20044;-86
2022/05/03 10:27:58;;;;;;;10.43;7.03;;;21.70;58.20;;;;;;10440861;28;20064;-84
2022/05/03 10:33:35;;;;;;;10.65;6.28;;;21.30;56.10;;;;;;10401554;28;20034;-85
2022/05/03 10:39:05;;;;;;;13.27;6.57;;;21.40;57.30;;;;;;10307575;28;20052;-85
2022/05/03 10:44:43;;;;;;;8.98;6.32;;;21.40;52.60;;;;;;10447633;28;20028;-85
2022/05/03 10:50:12;;;;;;;9.68;6.55;;;21.50;56.40;;;;;;10418903;28;20025;-87
2022/05/03 10:55:14;;;;;;;8.02;6.10;;;21.30;56.30;;;;;;10431772;28;20645;-86
2022/05/03 11:00:39;;;;;;;9.32;6.95;;;21.50;56.80;;;;;;10406360;28;20501;-84
2022/05/03 11:06:12;;;;;;;11.63;7.33;;;21.70;54.10;;;;;;10430995;28;20064;-85
2022/05/03 11:11:52;;;;;;;9.00;6.32;;;21.00;57.90;;;;;;10428478;28;20879;-88
2022/05/03 11:17:04;;;;;;;8.70;6.63;;;21.30;58.70;;;;;;10391866;28;20045;-86
2022/05/03 11:22:21;;;;;;;12.70;6.68;;;21.30;56.40;;;;;;10418886;28;20111;-87
2022/05/03 11:27:22;;;;;;;9.13;5.82;;;21.30;56.70;;;;;;10396290;28;20044;-85
2022/05/03 11:32:37;;;;;;;9.95;7.70;;;21.20;59.20;;;;;;10426224;28;20021;-84
2022/05/03 11:37:47;;;;;;;11.00;7.28;;;21.00;57.30;;;;;;10427268;28;20100;-85
2022/05/03 11:42:49;;;;;;;12.05;8.10;;;21.10;59.10;;;;;;10442234;28;20037;-86
2022/05/03 11:47:51;;;;;;;10.70;7.65;;;21.50;58.50;;;;;;10412437;28;20477;-84
2022/05/03 11:58:27;;;;;;;12.35;7.35;;;22.10;57.70;;;;;;10418809;28;20049;-83
2022/05/03 12:03:28;;;;;;;9.38;6.38;;;21.80;57.90;;;;;;10424077;28;20028;-85
2022/05/03 12:08:29;;;;;;;10.32;7.38;;;21.20;57.50;;;;;;10440367;28;20029;-83
2022/05/03 12:13:31;;;;;;;12.88;7.22;;;20.70;56.60;;;;;;10401265;28;20792;-86
2022/05/03 12:18:33;;;;;;;12.35;6.78;;;20.40;56.40;;;;;;10424110;28;20087;-82
2022/05/03 12:23:34;;;;;;;11.20;7.20;;;20.30;60.10;;;;;;10428132;28;20148;-83
2022/05/03 12:28:42;;;;;;;7.82;6.00;;;20.70;60.70;;;;;;10419530;28;20029;-86
2022/05/03 12:33:53;;;;;;;8.93;6.30;;;21.00;58.40;;;;;;10436502;28;20037;-84
2022/05/03 12:38:54;;;;;;;9.32;6.72;;;20.70;59.50;;;;;;10439304;28;20494;-83
2022/05/03 12:44:07;;;;;;;10.35;6.40;;;20.50;60.60;;;;;;10443766;28;20041;-83
2022/05/03 12:49:11;;;;;;;11.48;6.50;;;20.90;57.10;;;;;;10443198;28;20459;-86
2022/05/03 12:54:13;;;;;;;8.33;5.67;;;21.20;57.20;;;;;;10435275;28;20040;-84
2022/05/03 12:59:14;;;;;;;8.75;6.47;;;21.20;58.10;;;;;;10424561;28;20758;-84
2022/05/03 13:04:15;;;;;;;8.63;5.90;;;20.60;58.70;;;;;;10443263;28;20031;-85
2022/05/03 13:09:16;;;;;;;8.18;5.63;;;20.30;59.20;;;;;;10452276;28;20067;-86
2022/05/03 13:14:17;;;;;;;8.05;5.47;;;20.20;59.70;;;;;;10427544;28;20065;-86
2022/05/03 13:19:18;;;;;;;7.43;6.20;;;20.10;59.50;;;;;;10431537;28;20036;-85
2022/05/03 13:24:19;;;;;;;9.02;5.95;;;20.30;58.00;;;;;;10428343;28;20036;-85
2022/05/03 13:29:21;;;;;;;9.48;5.97;;;20.30;58.50;;;;;;10426364;28;20026;-85
2022/05/03 13:34:21;;;;;;;8.48;5.50;;;20.20;59.00;;;;;;10440063;28;20068;-85
2022/05/03 13:44:42;;;;;;;6.72;5.22;;;19.70;60.00;;;;;;10434267;28;20033;-86
2022/05/03 13:49:43;;;;;;;8.18;4.93;;;19.70;60.30;;;;;;10402725;28;20033;-84
2022/05/03 13:54:44;;;;;;;9.13;5.78;;;19.80;61.60;;;;;;10427488;28;20403;-87
2022/05/03 13:59:44;;;;;;;6.68;5.68;;;19.90;61.10;;;;;;10413882;28;20526;-86
2022/05/03 14:04:45;;;;;;;7.10;4.65;;;19.60;60.10;;;;;;10404742;28;20091;-86
2022/05/03 14:09:46;;;;;;;8.00;4.95;;;19.50;60.40;;;;;;10435904;28;20029;-86
2022/05/03 14:14:46;;;;;;;7.43;5.05;;;19.40;61.20;;;;;;10426236;28;20053;-86
2022/05/03 14:19:48;;;;;;;6.68;4.70;;;19.30;60.30;;;;;;10409744;28;20026;-87
2022/05/03 14:24:48;;;;;;;5.38;4.85;;;19.30;61.30;;;;;;10422614;28;20025;-86
2022/05/03 14:29:49;;;;;;;9.38;5.28;;;19.40;61.20;;;;;;10436887;28;20106;-85
2022/05/03 14:34:51;;;;;;;5.43;4.75;;;19.60;60.10;;;;;;10424710;28;20057;-84
2022/05/03 14:39:52;;;;;;;7.78;4.97;;;19.50;61.00;;;;;;10430665;28;20021;-86
2022/05/03 14:44:53;;;;;;;7.07;5.05;;;19.60;60.70;;;;;;10432803;28;20041;-85
2022/05/03 14:49:53;;;;;;;7.45;4.80;;;19.70;61.00;;;;;;10444151;28;20025;-84
2022/05/03 14:54:54;;;;;;;6.88;4.93;;;19.90;60.80;;;;;;10440772;28;20036;-85
2022/05/03 15:05:14;;;;;;;7.25;4.65;;;19.90;61.50;;;;;;10426809;28;20037;-88
2022/05/03 15:10:16;;;;;;;5.00;4.50;;;20.00;59.40;;;;;;10430295;28;20026;-83
2022/05/03 15:15:20;;;;;;;6.57;4.05;;;19.80;58.50;;;;;;10440947;28;20048;-84
2022/05/03 15:20:23;;;;;;;5.32;4.25;;;19.50;58.30;;;;;;10429797;28;20124;-83
2022/05/03 15:25:25;;;;;;;6.43;4.80;;;19.50;60.50;;;;;;10414666;28;20021;-83
2022/05/03 15:30:28;;;;;;;6.28;4.85;;;19.40;59.10;;;;;;10427964;28;20534;-84
2022/05/03 15:35:33;;;;;;;5.13;4.63;;;19.10;60.10;;;;;;10379842;28;20443;-84
2022/05/03 15:40:53;;;;;;;5.75;4.30;;;18.80;60.30;;;;;;10443363;28;20098;-83
2022/05/03 15:45:55;;;;;;;6.15;4.38;;;18.80;61.70;;;;;;10443741;28;20086;-85
2022/05/03 15:50:56;;;;;;;4.68;4.20;;;18.60;61.40;;;;;;10446868;28;20075;-84
2022/05/03 15:55:56;;;;;;;5.82;4.00;;;18.50;60.50;;;;;;10436353;28;20095;-84
2022/05/03 16:00:57;;;;;;;9.23;5.28;;;18.60;61.80;;;;;;10412661;28;20029;-83
2022/05/03 16:05:58;;;;;;;7.07;3.97;;;18.60;62.80;;;;;;10422851;28;20041;-84
2022/05/03 16:10:59;;;;;;;8.23;5.35;;;18.50;62.10;;;;;;10426025;28;20639;-83
2022/05/03 16:16:00;;;;;;;6.22;4.47;;;18.40;61.40;;;;;;10436580;28;20056;-84
2022/05/03 16:21:01;;;;;;;5.25;4.25;;;18.20;62.90;;;;;;10422255;28;20040;-84
2022/05/03 16:26:02;;;;;;;6.07;4.40;;;17.90;62.70;;;;;;10417804;28;20551;-84
2022/05/03 16:31:06;;;;;;;7.18;4.93;;;17.80;63.50;;;;;;10417452;28;20432;-83
2022/05/03 16:46:46;;;;;;;6.82;4.53;;;17.60;64.20;;;;;;10440186;28;20529;-83
2022/05/03 16:51:47;;;;;;;6.55;4.88;;;17.50;64.60;;;;;;10425775;28;20030;-85
2022/05/03 16:56:48;;;;;;;7.30;4.70;;;17.40;64.10;;;;;;10425147;28;20035;-84
2022/05/03 17:01:49;;;;;;;5.88;4.90;;;17.30;64.60;;;;;;10428438;28;20469;-84
2022/05/03 17:06:49;;;;;;;8.43;4.85;;;17.30;65.00;;;;;;10436834;28;20039;-84
2022/05/03 17:11:51;;;;;;;7.57;4.80;;;17.20;64.60;;;;;;10422974;28;20064;-85
2022/05/03 17:16:52;;;;;;;5.82;4.95;;;17.30;65.40;;;;;;10423965;28;20464;-84
2022/05/03 17:21:55;;;;;;;5.80;4.60;;;17.20;67.00;;;;;;10437656;28;20108;-83
2022/05/03 17:26:55;;;;;;;6.35;4.90;;;17.10;65.80;;;;;;10420759;28;20043;-85
2022/05/03 17:31:57;;;;;;;7.18;4.50;;;17.00;66.90;;;;;;10422093;28;20026;-82
2022/05/03 17:36:58;;;;;;;7.03;4.90;;;16.90;67.40;;;;;;10412595;28;20041;-85
2022/05/03 17:41:59;;;;;;;5.97;4.88;;;16.90;67.60;;;;;;10429202;28;20663;-83
2022/05/03 17:46:59;;;;;;;8.02;5.18;;;16.80;67.60;;;;;;10397983;28;20032;-84
2022/05/03 17:57:28;;;;;;;8.25;5.30;;;16.50;69.80;;;;;;10421998;28;20057;-82
2022/05/03 18:02:29;;;;;;;6.03;4.53;;;16.30;68.30;;;;;;10419868;28;20025;-83
2022/05/03 18:07:31;;;;;;;6.97;5.28;;;16.10;71.10;;;;;;10419282;28;20056;-83
2022/05/03 18:12:32;;;;;;;6.35;4.85;;;15.90;71.30;;;;;;10431201;28;20048;-83
2022/05/03 18:17:34;;;;;;;7.28;4.97;;;15.70;72.90;;;;;;10419428;28;20598;-82
2022/05/03 18:22:35;;;;;;;7.50;5.05;;;15.30;74.50;;;;;;10439756;28;20056;-81
2022/05/03 18:27:36;;;;;;;7.90;5.63;;;15.00;75.00;;;;;;10441326;28;20144;-84
2022/05/03 18:32:37;;;;;;;8.32;5.85;;;14.60;76.10;;;;;;10438767;28;20075;-83
2022/05/03 18:37:37;;;;;;;8.88;6.45;;;14.30;77.00;;;;;;10423153;28;20037;-83
2022/05/03 18:42:39;;;;;;;11.95;6.50;;;13.90;77.60;;;;;;10434714;28;20041;-84
2022/05/03 18:47:40;;;;;;;10.60;6.95;;;13.70;79.00;;;;;;10417589;28;20032;-84
2022/05/03 18:52:41;;;;;;;12.25;7.25;;;13.30;79.60;;;;;;10413629;28;20453;-83
2022/05/03 18:57:42;;;;;;;13.02;7.50;;;13.00;79.70;;;;;;10424902;28;20043;-82
2022/05/03 19:02:43;;;;;;;16.05;8.88;;;12.80;80.60;;;;;;10441225;28;20013;-82
2022/05/03 19:07:44;;;;;;;16.48;10.15;;;12.50;82.00;;;;;;10410700;28;20032;-82
2022/05/03 19:12:45;;;;;;;13.65;8.38;;;12.30;82.90;;;;;;10430185;28;20465;-82
2022/05/03 19:17:46;;;;;;;17.40;9.57;;;12.10;82.70;;;;;;10424671;28;20462;-82
2022/05/03 19:22:49;;;;;;;16.05;9.20;;;12.00;84.10;;;;;;10415718;28;20033;-82
2022/05/03 19:33:12;;;;;;;15.38;9.45;;;11.80;84.90;;;;;;10434708;28;20033;-84
2022/05/03 19:38:15;;;;;;;17.48;10.07;;;11.70;86.10;;;;;;10439883;28;20492;-82
2022/05/03 19:43:20;;;;;;;14.63;8.60;;;11.60;87.00;;;;;;10441403;28;20369;-83
2022/05/03 19:48:22;;;;;;;17.08;9.43;;;11.60;88.30;;;;;;10437158;28;20052;-82
2022/05/03 19:53:22;;;;;;;17.42;10.40;;;11.50;90.00;;;;;;10431151;28;20032;-84
2022/05/03 19:58:24;;;;;;;16.60;9.82;;;11.50;90.40;;;;;;10425620;28;20392;-82
2022/05/03 20:03:24;;;;;;;14.38;8.95;;;11.50;90.60;;;;;;10445397;28;20032;-82
2022/05/03 20:08:35;;;;;;;15.38;9.52;;;11.40;90.50;;;;;;10450276;28;20025;-83
2022/05/03 20:13:38;;;;;;;16.17;9.80;;;11.40;90.30;;;;;;10450921;28;20180;-81
2022/05/03 20:18:39;;;;;;;15.85;10.40;;;11.30;90.60;;;;;;10445854;28;20044;-83
2022/05/03 20:23:42;;;;;;;16.50;9.63;;;11.10;91.50;;;;;;10455687;28;20025;-80
2022/05/03 20:28:44;;;;;;;20.23;10.68;;;11.00;91.50;;;;;;10436941;28;20040;-83
2022/05/03 20:33:44;;;;;;;16.35;10.40;;;10.90;91.90;;;;;;10439716;28;20037;-84
2022/05/03 20:38:45;;;;;;;18.30;11.23;;;10.90;92.00;;;;;;10439301;28;20393;-83
2022/05/03 20:43:46;;;;;;;19.40;11.60;;;10.80;93.20;;;;;;10421030;28;20107;-84
2022/05/03 20:49:01;;;;;;;22.10;12.10;;;10.70;93.60;;;;;;10447838;28;20083;-83
2022/05/03 20:54:02;;;;;;;21.57;12.73;;;10.70;94.30;;;;;;10433604;28;20034;-84
2022/05/03 20:59:03;;;;;;;19.87;12.93;;;10.60;95.20;;;;;;10413054;28;20091;-85
2022/05/03 21:04:06;;;;;;;22.50;13.57;;;10.60;95.40;;;;;;10413041;28;20079;-83
2022/05/03 21:09:07;;;;;;;26.73;13.50;;;10.50;96.40;;;;;;10401323;28;20032;-82
2022/05/03 21:14:10;;;;;;;26.50;14.20;;;10.40;96.80;;;;;;10434294;28;20115;-84
2022/05/03 21:19:10;;;;;;;30.67;15.03;;;10.20;98.40;;;;;;10444405;28;20481;-82
2022/05/03 21:24:11;;;;;;;33.93;17.27;;;10.20;98.90;;;;;;10442117;28;20029;-83
2022/05/03 21:29:11;;;;;;;26.40;15.50;;;10.00;99.90;;;;;;10429131;28;20087;-82
2022/05/03 21:34:13;;;;;;;25.73;14.93;;;10.00;99.90;;;;;;10411290;28;20033;-83
2022/05/03 21:39:16;;;;;;;26.03;14.70;;;9.90;99.90;;;;;;10447706;28;20767;-83
2022/05/03 21:44:16;;;;;;;27.67;14.77;;;10.00;99.90;;;;;;10452471;28;20037;-83
2022/05/03 21:49:17;;;;;;;27.77;15.20;;;10.00;99.90;;;;;;10422107;28;20521;-81
2022/05/03 21:54:18;;;;;;;26.10;14.30;;;10.10;99.90;;;;;;10439509;28;20576;-82
2022/05/03 21:59:18;;;;;;;24.70;13.33;;;10.10;99.90;;;;;;10411635;28;20364;-82
2022/05/03 22:04:20;;;;;;;26.30;16.03;;;10.20;99.90;;;;;;10410945;28;20026;-84
2022/05/03 22:09:21;;;;;;;28.53;14.73;;;10.40;99.90;;;;;;10410468;28;20033;-83
2022/05/03 22:14:22;;;;;;;22.90;14.20;;;10.40;99.90;;;;;;10410775;28;20060;-83
2022/05/03 22:19:22;;;;;;;25.55;14.43;;;10.50;99.90;;;;;;10443700;28;20428;-84
2022/05/03 22:24:23;;;;;;;26.30;15.97;;;10.40;99.90;;;;;;10433213;28;20056;-82
2022/05/03 22:29:23;;;;;;;25.38;15.68;;;10.40;99.90;;;;;;10419145;28;20083;-82
2022/05/03 22:34:24;;;;;;;28.77;16.53;;;10.50;99.90;;;;;;10448977;28;20073;-83
2022/05/03 22:39:25;;;;;;;27.85;15.60;;;10.50;99.90;;;;;;10449940;28;20040;-82
2022/05/03 22:44:25;;;;;;;26.80;15.13;;;10.50;99.90;;;;;;10449387;28;20520;-82
2022/05/03 22:49:26;;;;;;;21.70;13.40;;;10.50;99.90;;;;;;10413933;28;20029;-83
2022/05/03 22:54:26;;;;;;;21.85;13.80;;;10.60;99.00;;;;;;10425175;28;20041;-82
2022/05/03 22:59:27;;;;;;;21.27;13.10;;;10.90;99.90;;;;;;10408881;28;20033;-83
2022/05/03 23:04:27;;;;;;;22.38;13.70;;;10.90;99.90;;;;;;10439199;28;20039;-82
2022/05/03 23:09:30;;;;;;;25.40;14.10;;;11.00;99.90;;;;;;10430406;28;20517;-82
2022/05/03 23:14:31;;;;;;;21.38;13.32;;;10.90;99.90;;;;;;10419133;28;20428;-83
2022/05/03 23:19:35;;;;;;;20.52;13.20;;;10.90;99.90;;;;;;10412832;28;20017;-82
2022/05/03 23:24:35;;;;;;;19.73;13.05;;;10.90;99.90;;;;;;10448699;28;20044;-82
2022/05/03 23:29:36;;;;;;;20.58;11.40;;;10.90;99.90;;;;;;10450161;28;20083;-83
2022/05/03 23:40:05;;;;;;;17.55;10.98;;;10.90;99.90;;;;;;10416021;28;20488;-83
2022/05/03 23:50:31;;;;;;;21.77;11.82;;;11.00;99.90;;;;;;10416794;28;20037;-82
2022/05/03 23:55:31;;;;;;;19.05;11.50;;;11.00;98.20;;;;;;10415309;28;20042;-82
